Time;durP1;ratioP1;P1;durP2;ratioP2;P2;SDS_P1;SDS_P2;PMS_P1;PMS_P2;Temp;Humidity;BMP_temperature;BMP_pressure;BME280_temperature;BME280_humidity;BME280_pressure;Samples;Min_cycle;Max_cycle;Signal;HPM_P1;HPM_P2
2023/10/19 00:00:33;;;;;;;25.50;24.40;;;;;;;8.45;100.00;100431.22;5039467;28;20432;-39
2023/10/19 00:03:03;;;;;;;25.60;24.40;;;;;;;8.46;100.00;100431.00;5038355;28;20460;-39
2023/10/19 00:05:32;;;;;;;25.63;24.43;;;;;;;8.45;100.00;100425.91;5037924;28;21005;-39
2023/10/19 00:08:05;;;;;;;26.13;24.83;;;;;;;8.47;100.00;100431.84;5031306;28;20471;-39
2023/10/19 00:10:34;;;;;;;25.30;24.10;;;;;;;8.48;100.00;100434.31;5039025;28;20436;-38
2023/10/19 00:13:05;;;;;;;25.97;24.67;;;;;;;8.51;100.00;100425.94;5038442;28;20830;-38
2023/10/19 00:15:34;;;;;;;25.20;24.10;;;;;;;8.50;100.00;100408.38;5038699;28;20503;-39
2023/10/19 00:18:20;;;;;;;25.77;24.53;;;;;;;8.54;100.00;100414.94;5031126;28;20498;-39
2023/10/19 00:20:52;;;;;;;24.97;23.87;;;;;;;8.51;100.00;100404.69;5037996;28;20442;-38
2023/10/19 00:23:28;;;;;;;25.20;24.00;;;;;;;8.49;100.00;100390.78;5037917;28;20486;-38
2023/10/19 00:25:57;;;;;;;24.63;23.40;;;;;;;8.49;100.00;100390.78;5041530;28;20429;-40
2023/10/19 00:28:26;;;;;;;24.90;23.80;;;;;;;8.50;100.00;100384.47;5042330;28;20453;-39
2023/10/19 00:31:00;;;;;;;24.17;22.97;;;;;;;8.51;100.00;100387.94;5042161;28;20467;-39
2023/10/19 00:33:30;;;;;;;24.67;23.10;;;;;;;8.48;100.00;100388.31;5042229;28;20463;-43
2023/10/19 00:36:06;;;;;;;23.97;22.97;;;;;;;8.51;100.00;100378.09;5042004;28;20519;-39
2023/10/19 00:38:47;;;;;;;25.80;24.60;;;;;;;8.51;100.00;100362.16;5042588;28;20533;-41
2023/10/19 00:41:21;;;;;;;24.90;23.90;;;;;;;8.52;100.00;100365.66;5036601;28;20435;-38
2023/10/19 00:43:57;;;;;;;24.07;22.77;;;;;;;8.52;100.00;100358.50;5041951;28;20463;-39
2023/10/19 00:46:31;;;;;;;23.67;22.37;;;;;;;8.50;100.00;100362.38;5042249;28;20471;-38
2023/10/19 00:49:05;;;;;;;23.43;22.43;;;;;;;8.52;100.00;100347.03;5042150;28;20503;-39
2023/10/19 00:51:50;;;;;;;24.90;23.77;;;;;;;8.51;100.00;100335.59;5042881;28;20932;-40
2023/10/19 00:54:26;;;;;;;25.10;24.00;;;;;;;8.53;100.00;100332.75;5036274;28;20502;-38
2023/10/19 00:56:58;;;;;;;26.53;24.57;;;;;;;8.54;100.00;100348.50;5041485;28;21154;-39
2023/10/19 00:59:30;;;;;;;24.33;23.23;;;;;;;8.57;100.00;100337.47;5041666;28;21369;-39
2023/10/19 01:02:16;;;;;;;26.17;24.70;;;;;;;8.58;100.00;100332.97;5032877;28;20471;-38
2023/10/19 01:04:50;;;;;;;25.00;23.60;;;;;;;8.60;100.00;100325.66;5041577;28;20428;-39
2023/10/19 01:07:22;;;;;;;24.77;23.50;;;;;;;8.59;100.00;100319.50;5041229;28;20464;-39
2023/10/19 01:09:52;;;;;;;24.57;23.43;;;;;;;8.58;100.00;100323.19;5041470;28;20437;-38
2023/10/19 01:12:32;;;;;;;24.47;22.77;;;;;;;8.62;100.00;100320.97;5040360;28;20463;-38
2023/10/19 01:15:16;;;;;;;24.50;23.40;;;;;;;8.59;100.00;100297.44;5041326;28;20463;-39
2023/10/19 01:17:46;;;;;;;24.73;23.67;;;;;;;8.59;100.00;100305.41;5041335;28;20872;-38
2023/10/19 01:20:20;;;;;;;25.33;23.93;;;;;;;8.63;100.00;100320.75;5040736;28;20888;-38
2023/10/19 01:22:54;;;;;;;25.03;23.40;;;;;;;8.62;100.00;100312.97;5040546;28;20456;-39
2023/10/19 01:25:34;;;;;;;24.50;23.10;;;;;;;8.63;100.00;100304.00;5040416;28;20424;-39
2023/10/19 01:28:08;;;;;;;24.70;23.40;;;;;;;8.63;100.00;100302.16;5028500;28;20905;-41
2023/10/19 01:30:37;;;;;;;25.77;24.17;;;;;;;8.63;100.00;100294.16;5035586;28;20431;-39
2023/10/19 01:33:12;;;;;;;24.63;23.10;;;;;;;8.62;100.00;100291.72;5030120;28;20474;-39
2023/10/19 01:38:23;;;;;;;26.13;24.63;;;;;;;8.61;100.00;100279.44;5039450;28;20456;-40
2023/10/19 01:40:51;;;;;;;25.93;24.43;;;;;;;8.61;100.00;100288.25;5039812;28;21117;-40
2023/10/19 01:43:21;;;;;;;25.67;24.27;;;;;;;8.62;100.00;100271.28;5038792;28;20978;-42
2023/10/19 01:45:48;;;;;;;26.70;24.70;;;;;;;8.62;100.00;100283.75;5039697;28;20515;-41
2023/10/19 01:48:16;;;;;;;24.73;23.53;;;;;;;8.65;100.00;100264.75;5038681;28;20464;-40
2023/10/19 01:50:43;;;;;;;24.43;23.00;;;;;;;8.68;100.00;100245.75;5039234;28;20486;-39
2023/10/19 01:53:15;;;;;;;24.27;22.97;;;;;;;8.69;100.00;100258.03;5038761;28;20909;-42
2023/10/19 01:55:47;;;;;;;25.80;24.53;;;;;;;8.68;100.00;100241.25;5039344;28;20989;-39
2023/10/19 01:58:15;;;;;;;23.70;22.43;;;;;;;8.67;100.00;100223.66;5039348;28;20452;-39
2023/10/19 02:00:43;;;;;;;23.03;21.93;;;;;;;8.70;100.00;100225.09;5038968;28;20508;-40
2023/10/19 02:03:11;;;;;;;23.80;22.63;;;;;;;8.73;100.00;100224.72;5039036;28;20995;-39
2023/10/19 02:05:41;;;;;;;24.83;23.47;;;;;;;8.71;100.00;100211.63;5038970;28;20931;-40
2023/10/19 02:08:09;;;;;;;23.77;22.57;;;;;;;8.73;100.00;100198.94;5035292;28;20503;-39
2023/10/19 02:10:40;;;;;;;25.93;23.87;;;;;;;8.74;100.00;100203.25;5033427;28;20436;-39
2023/10/19 02:13:10;;;;;;;25.73;24.53;;;;;;;8.75;100.00;100188.13;5037547;28;20548;-39
2023/10/19 02:15:38;;;;;;;25.33;23.83;;;;;;;8.75;100.00;100188.13;5039641;28;20890;-40
2023/10/19 02:18:05;;;;;;;25.10;23.90;;;;;;;8.77;100.00;100181.59;5026462;28;20551;-41
2023/10/19 02:20:34;;;;;;;24.47;22.93;;;;;;;8.80;100.00;100175.88;5032273;28;20906;-45
2023/10/19 02:23:08;;;;;;;25.40;23.90;;;;;;;8.80;100.00;100180.38;5031885;28;20460;-41
2023/10/19 02:25:36;;;;;;;26.27;24.87;;;;;;;8.82;100.00;100173.00;5031686;28;21050;-41
2023/10/19 02:28:06;;;;;;;26.43;24.90;;;;;;;8.84;100.00;100173.66;5031811;28;20971;-46
2023/10/19 02:30:35;;;;;;;25.87;24.63;;;;;;;8.86;100.00;100156.47;5032281;28;20524;-42
2023/10/19 02:33:05;;;;;;;25.27;23.83;;;;;;;8.87;100.00;100160.75;5031650;28;20835;-41
2023/10/19 02:35:35;;;;;;;25.70;24.30;;;;;;;8.89;100.00;100158.75;5032003;28;20532;-47
2023/10/19 02:38:02;;;;;;;25.50;24.10;;;;;;;8.93;100.00;100164.44;5031825;28;20479;-43
2023/10/19 02:40:31;;;;;;;25.63;24.20;;;;;;;8.95;100.00;100167.75;5031501;28;20484;-42
2023/10/19 02:43:02;;;;;;;28.83;27.07;;;;;;;8.97;100.00;100160.38;5031421;28;20463;-48
2023/10/19 02:45:30;;;;;;;28.60;26.53;;;;;;;8.98;100.00;100163.88;5031756;28;20467;-42
2023/10/19 02:48:00;;;;;;;27.90;26.10;;;;;;;9.00;100.00;100149.34;5030964;28;20459;-40
2023/10/19 02:50:27;;;;;;;26.67;25.10;;;;;;;9.03;100.00;100154.25;5031632;28;20436;-40
2023/10/19 02:52:54;;;;;;;28.13;26.20;;;;;;;9.05;100.00;100148.75;5031191;28;20543;-40
2023/10/19 02:55:24;;;;;;;27.43;25.90;;;;;;;9.07;100.00;100144.06;5031409;28;20472;-41
2023/10/19 02:57:52;;;;;;;26.73;25.30;;;;;;;9.09;100.00;100134.84;5031635;28;20490;-41
2023/10/19 03:00:20;;;;;;;27.30;25.70;;;;;;;9.11;100.00;100130.13;5031738;28;20467;-40
2023/10/19 03:02:51;;;;;;;28.87;27.07;;;;;;;9.14;100.00;100127.06;5031043;28;20486;-40
2023/10/19 03:05:20;;;;;;;29.17;27.50;;;;;;;9.15;100.00;100120.75;5031060;28;20511;-39
2023/10/19 03:07:48;;;;;;;29.33;27.77;;;;;;;9.16;100.00;100103.78;5031475;28;20452;-41
2023/10/19 03:10:23;;;;;;;28.87;27.00;;;;;;;9.18;100.00;100125.66;5031195;28;20432;-44
2023/10/19 03:12:52;;;;;;;28.33;26.67;;;;;;;9.19;100.00;100110.53;5030717;28;20463;-40
2023/10/19 03:15:20;;;;;;;28.47;26.73;;;;;;;9.23;100.00;100098.44;5031279;28;20953;-44
2023/10/19 03:17:49;;;;;;;26.50;24.97;;;;;;;9.20;100.00;100112.97;5031078;28;20460;-42
2023/10/19 03:20:18;;;;;;;27.60;26.00;;;;;;;9.23;100.00;100109.06;5031396;28;20503;-43
2023/10/19 03:22:47;;;;;;;28.00;26.50;;;;;;;9.24;100.00;100108.06;5031010;28;20495;-44
2023/10/19 03:28:06;;;;;;;28.97;27.13;;;;;;;9.23;100.00;100112.56;5031050;28;20835;-42
2023/10/19 03:30:38;;;;;;;29.03;27.00;;;;;;;9.24;100.00;100103.56;5030765;28;20977;-43
2023/10/19 03:33:08;;;;;;;30.67;28.57;;;;;;;9.26;100.00;100103.34;5030742;28;20482;-42
2023/10/19 03:35:38;;;;;;;30.97;28.80;;;;;;;9.25;100.00;100091.91;5030864;28;20440;-45
2023/10/19 03:38:14;;;;;;;31.70;28.90;;;;;;;9.27;100.00;100097.84;5030759;28;21258;-39
2023/10/19 03:40:46;;;;;;;29.00;27.40;;;;;;;9.30;100.00;100102.75;5030953;28;20507;-41
2023/10/19 03:43:18;;;;;;;28.40;26.30;;;;;;;9.29;100.00;100095.78;5030599;28;20467;-43
2023/10/19 03:45:50;;;;;;;29.27;27.27;;;;;;;9.32;100.00;100106.00;5030873;28;20535;-41
2023/10/19 03:48:23;;;;;;;31.33;29.20;;;;;;;9.30;100.00;100096.59;5031203;28;20542;-42
2023/10/19 03:50:53;;;;;;;30.30;28.20;;;;;;;9.32;100.00;100100.69;5031148;28;20460;-42
2023/10/19 03:53:22;;;;;;;30.00;27.50;;;;;;;9.32;100.00;100105.19;5030511;28;20991;-43
2023/10/19 03:55:50;;;;;;;28.60;26.70;;;;;;;9.31;100.00;100117.69;5030668;28;20428;-42
2023/10/19 03:58:20;;;;;;;29.30;26.93;;;;;;;9.33;100.00;100075.72;5031106;28;20456;-39
2023/10/19 04:00:48;;;;;;;30.77;28.87;;;;;;;9.34;100.00;100106.66;5033787;28;20475;-43
2023/10/19 04:03:17;;;;;;;31.67;29.50;;;;;;;9.32;100.00;100098.03;5034576;28;20471;-41
2023/10/19 04:05:46;;;;;;;31.47;28.97;;;;;;;9.31;100.00;100106.22;5034526;28;20567;-40
2023/10/19 04:08:17;;;;;;;29.43;27.03;;;;;;;9.30;100.00;100120.56;5027114;28;20786;-44
2023/10/19 04:11:07;;;;;;;29.43;27.17;;;;;;;9.33;100.00;100088.22;5034832;28;20808;-40
2023/10/19 04:13:36;;;;;;;26.53;24.60;;;;;;;9.34;100.00;100104.00;5034151;28;21017;-40
2023/10/19 04:16:05;;;;;;;28.27;26.40;;;;;;;9.34;100.00;100101.34;5034662;28;20439;-43
2023/10/19 04:18:34;;;;;;;28.60;26.63;;;;;;;9.35;100.00;100083.50;5034671;28;20455;-42
2023/10/19 04:21:03;;;;;;;30.10;28.20;;;;;;;9.35;100.00;100072.84;5034774;28;20472;-42
2023/10/19 04:23:34;;;;;;;29.67;27.90;;;;;;;9.34;100.00;100084.53;5034256;28;20509;-39
2023/10/19 04:26:10;;;;;;;27.90;26.20;;;;;;;9.35;100.00;100068.34;5034437;28;20486;-42
2023/10/19 04:28:44;;;;;;;29.40;27.53;;;;;;;9.35;100.00;100080.84;5034403;28;20448;-42
2023/10/19 04:31:15;;;;;;;29.10;26.97;;;;;;;9.35;100.00;100068.34;5026591;28;20519;-42
2023/10/19 04:33:45;;;;;;;29.27;27.67;;;;;;;9.34;100.00;100064.09;5033968;28;20452;-42
2023/10/19 04:36:14;;;;;;;29.60;27.70;;;;;;;9.30;100.00;100060.19;5034059;28;20535;-40
2023/10/19 04:38:43;;;;;;;28.20;26.30;;;;;;;9.33;100.00;100059.78;5034053;28;20458;-44
2023/10/19 04:41:12;;;;;;;28.30;26.10;;;;;;;9.30;100.00;100059.34;5033955;28;20563;-40
2023/10/19 04:43:40;;;;;;;28.07;26.40;;;;;;;9.34;100.00;100053.44;5033732;28;20462;-40
2023/10/19 04:46:11;;;;;;;28.70;27.03;;;;;;;9.34;100.00;100058.75;5034003;28;20927;-41
2023/10/19 04:48:41;;;;;;;28.60;26.80;;;;;;;9.33;100.00;100046.47;5034161;28;20462;-42
2023/10/19 04:51:10;;;;;;;27.97;26.30;;;;;;;9.31;100.00;100043.19;5034195;28;20468;-43
2023/10/19 04:53:38;;;;;;;27.20;25.57;;;;;;;9.30;100.00;100027.44;5033561;28;20479;-43
2023/10/19 04:56:09;;;;;;;27.50;25.90;;;;;;;9.31;100.00;100029.91;5033879;28;20439;-43
2023/10/19 04:58:38;;;;;;;28.50;26.70;;;;;;;9.31;100.00;100024.56;5034085;28;20539;-45
2023/10/19 05:01:06;;;;;;;28.67;26.87;;;;;;;9.34;100.00;100021.50;5033782;28;20475;-41
2023/10/19 05:03:34;;;;;;;28.90;27.10;;;;;;;9.35;100.00;100009.81;5033387;28;20464;-42
2023/10/19 05:06:02;;;;;;;27.27;25.47;;;;;;;9.35;100.00;99991.19;5033358;28;20789;-43
2023/10/19 05:08:30;;;;;;;27.30;25.80;;;;;;;9.35;100.00;99991.19;5033700;28;20460;-41
2023/10/19 05:10:59;;;;;;;28.53;26.63;;;;;;;9.35;100.00;100009.00;5033074;28;20516;-41
2023/10/19 05:13:27;;;;;;;30.00;28.20;;;;;;;9.35;100.00;100004.50;5033342;28;20459;-42
2023/10/19 05:15:58;;;;;;;28.97;27.37;;;;;;;9.35;100.00;99996.50;5033244;28;20507;-42
2023/10/19 05:18:27;;;;;;;29.03;27.40;;;;;;;9.35;100.00;99975.22;5033630;28;20452;-43
2023/10/19 05:20:56;;;;;;;28.77;27.07;;;;;;;9.34;100.00;100002.88;5033509;28;20522;-42
2023/10/19 05:23:24;;;;;;;29.70;27.63;;;;;;;9.36;100.00;99986.69;5033057;28;20463;-42
2023/10/19 05:25:54;;;;;;;30.33;28.33;;;;;;;9.38;100.00;99992.63;5033064;28;20436;-42
2023/10/19 05:28:22;;;;;;;29.87;27.70;;;;;;;9.33;100.00;99998.56;5036197;28;20464;-40
2023/10/19 05:30:50;;;;;;;28.57;26.77;;;;;;;9.33;100.00;100009.22;5041360;28;20959;-41
2023/10/19 05:33:20;;;;;;;27.47;25.97;;;;;;;9.33;100.00;99997.75;5033406;28;20461;-42
2023/10/19 05:35:48;;;;;;;28.10;26.40;;;;;;;9.33;100.00;99979.13;5041241;28;20432;-40
2023/10/19 05:38:16;;;;;;;28.03;26.43;;;;;;;9.35;100.00;99985.03;5032734;28;20452;-39
2023/10/19 05:40:45;;;;;;;28.80;27.00;;;;;;;9.33;100.00;99987.94;5040844;28;20443;-39
2023/10/19 05:43:13;;;;;;;29.50;27.40;;;;;;;9.33;100.00;99989.75;5041009;28;20460;-40
2023/10/19 05:45:40;;;;;;;28.07;26.37;;;;;;;9.33;100.00;99992.44;5041262;28;20444;-41
2023/10/19 05:48:08;;;;;;;29.93;28.20;;;;;;;9.35;100.00;99988.53;5040470;28;20536;-41
2023/10/19 05:50:38;;;;;;;27.23;25.33;;;;;;;9.34;100.00;99991.41;5041314;28;20431;-40
2023/10/19 05:53:06;;;;;;;28.20;26.50;;;;;;;9.34;100.00;99988.75;5040799;28;20448;-38
2023/10/19 05:55:34;;;;;;;27.07;25.33;;;;;;;9.28;100.00;99985.06;5040591;28;20432;-39
2023/10/19 05:58:04;;;;;;;28.30;26.37;;;;;;;9.29;100.00;99991.19;5041582;28;20491;-38
2023/10/19 06:00:32;;;;;;;26.30;24.80;;;;;;;9.29;100.00;99986.69;5041334;28;20471;-39
2023/10/19 06:02:59;;;;;;;26.97;25.47;;;;;;;9.34;100.00;100000.22;5040684;28;20484;-39
2023/10/19 06:05:27;;;;;;;27.43;25.57;;;;;;;9.34;100.00;99986.09;5041758;28;20490;-39
2023/10/19 06:07:59;;;;;;;27.47;25.97;;;;;;;9.30;100.00;100009.63;5041484;28;20490;-39
2023/10/19 06:10:29;;;;;;;27.50;25.90;;;;;;;9.34;100.00;99996.72;5040763;28;20458;-39
2023/10/19 06:12:57;;;;;;;27.23;25.53;;;;;;;9.34;100.00;99992.25;5039353;28;21112;-41
2023/10/19 06:15:25;;;;;;;26.60;25.13;;;;;;;9.35;100.00;99993.03;5040623;28;20518;-40
2023/10/19 06:17:53;;;;;;;27.07;25.27;;;;;;;9.35;100.00;100025.78;5040171;28;20453;-42
2023/10/19 06:20:23;;;;;;;26.10;24.67;;;;;;;9.38;100.00;100008.59;5041175;28;20601;-39
2023/10/19 06:22:52;;;;;;;27.33;25.70;;;;;;;9.40;100.00;99986.09;5040357;28;20464;-41
2023/10/19 06:25:22;;;;;;;26.60;25.20;;;;;;;9.36;100.00;100006.16;5039554;28;20480;-39
2023/10/19 06:27:51;;;;;;;25.77;24.27;;;;;;;9.37;100.00;100023.75;5040289;28;20543;-38
2023/10/19 06:30:22;;;;;;;26.00;24.50;;;;;;;9.43;100.00;100003.47;5041438;28;20468;-39
2023/10/19 06:32:51;;;;;;;24.37;23.00;;;;;;;9.40;100.00;99999.41;5040384;28;20832;-38
2023/10/19 06:35:20;;;;;;;25.70;24.20;;;;;;;9.44;100.00;99991.78;5040355;28;20498;-42
2023/10/19 06:37:48;;;;;;;24.80;23.20;;;;;;;9.40;100.00;100018.03;5040847;28;20445;-39
2023/10/19 06:40:17;;;;;;;24.77;23.33;;;;;;;9.42;100.00;99993.84;5040485;28;20504;-41
2023/10/19 06:42:47;;;;;;;23.33;22.00;;;;;;;9.45;100.00;99993.44;5040301;28;20471;-38
2023/10/19 06:45:16;;;;;;;24.20;22.80;;;;;;;9.47;100.00;99998.56;5040634;28;20482;-40
2023/10/19 06:47:45;;;;;;;22.90;21.50;;;;;;;9.46;100.00;100003.06;5040155;28;20460;-39
2023/10/19 06:50:15;;;;;;;23.67;22.47;;;;;;;9.43;100.00;100011.47;5039245;28;20504;-38
2023/10/19 06:52:46;;;;;;;25.40;23.70;;;;;;;9.44;100.00;100007.75;5039182;28;20452;-37
2023/10/19 06:55:16;;;;;;;25.53;23.90;;;;;;;9.42;100.00;100012.47;5039534;28;20460;-42
2023/10/19 06:57:44;;;;;;;24.43;22.97;;;;;;;9.43;100.00;100012.28;5040351;28;20444;-39
2023/10/19 07:00:15;;;;;;;25.90;23.80;;;;;;;9.47;100.00;100018.00;5040520;28;20482;-38
2023/10/19 07:02:43;;;;;;;24.63;22.50;;;;;;;9.49;100.00;100023.13;5038448;28;20475;-43
2023/10/19 07:05:11;;;;;;;24.53;22.87;;;;;;;9.50;100.00;100012.25;5035427;28;20439;-40
2023/10/19 07:07:41;;;;;;;24.40;22.87;;;;;;;9.51;100.00;100024.53;5031576;28;20506;-38
2023/10/19 07:10:12;;;;;;;24.47;22.67;;;;;;;9.53;100.00;100021.69;5031425;28;20443;-43
2023/10/19 07:12:41;;;;;;;25.07;23.13;;;;;;;9.53;100.00;100021.69;5031284;28;20510;-39
2023/10/19 07:15:13;;;;;;;24.67;22.53;;;;;;;9.56;100.00;100031.94;5031308;28;20439;-41
2023/10/19 07:17:43;;;;;;;24.30;22.90;;;;;;;9.63;100.00;100022.88;5031647;28;20455;-42
2023/10/19 07:20:22;;;;;;;24.57;23.07;;;;;;;9.65;100.00;100028.00;5031492;28;20781;-40
2023/10/19 07:22:49;;;;;;;24.70;22.90;;;;;;;9.64;100.00;100023.72;5030726;28;20978;-42
2023/10/19 07:25:20;;;;;;;24.40;22.70;;;;;;;9.65;100.00;100033.31;5030979;28;20428;-44
2023/10/19 07:27:49;;;;;;;23.90;22.20;;;;;;;9.70;100.00;100023.72;5031270;28;20539;-42
2023/10/19 07:30:20;;;;;;;26.83;24.50;;;;;;;9.74;100.00;100030.22;5031283;28;20432;-42
2023/10/19 07:32:57;;;;;;;24.73;22.93;;;;;;;9.76;100.00;100033.53;5030901;28;20843;-39
2023/10/19 07:35:26;;;;;;;24.67;23.20;;;;;;;9.78;100.00;100034.13;5023215;28;20490;-40
2023/10/19 07:37:56;;;;;;;22.63;21.53;;;;;;;9.77;100.00;100024.50;5031145;28;20510;-41
2023/10/19 07:40:25;;;;;;;23.47;22.17;;;;;;;9.85;100.00;100029.59;5023340;28;20471;-39
2023/10/19 07:42:54;;;;;;;25.30;23.40;;;;;;;9.86;100.00;100019.75;5030615;28;21002;-39
2023/10/19 07:45:22;;;;;;;24.10;22.80;;;;;;;9.84;100.00;100040.47;5022652;28;20447;-42
2023/10/19 07:47:51;;;;;;;24.53;23.00;;;;;;;9.85;100.00;100026.94;5031032;28;20967;-43
2023/10/19 07:50:19;;;;;;;23.80;22.50;;;;;;;9.89;100.00;100035.31;5031096;28;20515;-43
2023/10/19 07:52:49;;;;;;;22.20;20.93;;;;;;;9.91;100.00;100030.63;5030511;28;20488;-41
2023/10/19 07:55:17;;;;;;;24.40;22.60;;;;;;;9.94;100.00;100031.03;5030698;28;20460;-41
2023/10/19 07:57:46;;;;;;;25.20;23.40;;;;;;;9.96;100.00;100044.13;5031094;28;20539;-43
2023/10/19 08:00:14;;;;;;;26.60;24.87;;;;;;;9.98;100.00;100034.88;5031001;28;20531;-42
2023/10/19 08:02:45;;;;;;;27.17;25.30;;;;;;;10.02;100.00;100027.28;5030522;28;21018;-42
2023/10/19 08:05:14;;;;;;;24.40;22.87;;;;;;;10.05;100.00;100020.72;5030618;28;20436;-44
2023/10/19 08:07:43;;;;;;;25.70;24.20;;;;;;;10.04;100.00;100030.56;5030944;28;20480;-42
2023/10/19 08:10:12;;;;;;;24.97;23.60;;;;;;;10.01;100.00;100028.31;5030997;28;20432;-40
2023/10/19 08:12:41;;;;;;;24.40;22.83;;;;;;;10.06;100.00;100025.03;5030523;28;20452;-43
2023/10/19 08:15:11;;;;;;;24.80;23.30;;;;;;;10.06;100.00;100022.38;5030718;28;20530;-42
2023/10/19 08:17:39;;;;;;;25.97;24.17;;;;;;;10.12;100.00;100010.88;5030710;28;20514;-43
2023/10/19 08:20:09;;;;;;;25.90;23.67;;;;;;;10.14;100.00;100024.81;5030359;28;20437;-40
2023/10/19 08:22:39;;;;;;;25.47;23.90;;;;;;;10.12;100.00;100011.69;5030265;28;20468;-42
2023/10/19 08:25:12;;;;;;;25.23;23.20;;;;;;;10.17;100.00;100008.41;5030692;28;20527;-47
2023/10/19 08:27:41;;;;;;;25.33;23.63;;;;;;;10.20;100.00;100019.47;5030755;28;20991;-42
2023/10/19 08:30:10;;;;;;;24.23;22.33;;;;;;;10.24;100.00;100026.03;5030452;28;20437;-42
2023/10/19 08:32:37;;;;;;;25.07;23.03;;;;;;;10.26;100.00;100010.63;5030132;28;20823;-40
2023/10/19 08:35:05;;;;;;;24.10;22.50;;;;;;;10.21;100.00;100017.63;5030498;28;20470;-42
2023/10/19 08:37:34;;;;;;;24.10;22.70;;;;;;;10.21;100.00;100015.78;5023661;28;20480;-43
2023/10/19 08:40:04;;;;;;;24.13;22.73;;;;;;;10.20;100.00;100016.81;5030672;28;20487;-43
2023/10/19 08:42:32;;;;;;;25.20;23.80;;;;;;;10.17;100.00;100021.75;5030364;28;20495;-40
2023/10/19 08:45:00;;;;;;;23.57;21.97;;;;;;;10.13;100.00;100010.69;5030239;28;20527;-42
2023/10/19 08:47:27;;;;;;;24.17;22.20;;;;;;;10.18;100.00;100010.06;5032583;28;20554;-42
2023/10/19 08:49:55;;;;;;;25.20;23.37;;;;;;;10.17;100.00;100003.91;5034127;28;20534;-45
2023/10/19 08:52:26;;;;;;;23.97;22.67;;;;;;;10.19;100.00;100004.50;5033638;28;20600;-45
2023/10/19 08:54:54;;;;;;;25.23;23.53;;;;;;;10.22;100.00;100003.25;5034050;28;20810;-42
2023/10/19 08:57:23;;;;;;;25.33;23.80;;;;;;;10.21;100.00;100020.28;5033930;28;20453;-44
2023/10/19 08:59:51;;;;;;;25.33;23.97;;;;;;;10.20;100.00;100022.13;5033948;28;20455;-42
2023/10/19 09:02:18;;;;;;;24.17;22.57;;;;;;;10.18;100.00;100016.22;5033080;28;21073;-44
2023/10/19 09:04:48;;;;;;;24.73;23.43;;;;;;;10.14;100.00;100025.66;5033550;28;20528;-40
2023/10/19 09:07:18;;;;;;;26.57;24.67;;;;;;;10.15;100.00;100027.28;5033731;28;20456;-44
2023/10/19 09:09:47;;;;;;;25.83;23.77;;;;;;;10.16;100.00;100020.91;5033829;28;20470;-43
2023/10/19 09:12:16;;;;;;;25.03;23.23;;;;;;;10.14;100.00;100036.31;5032905;28;20464;-43
2023/10/19 09:14:45;;;;;;;26.20;24.70;;;;;;;10.07;100.00;100024.00;5033508;28;20456;-41
2023/10/19 09:17:13;;;;;;;25.73;23.60;;;;;;;10.08;100.00;100023.78;5033409;28;20456;-41
2023/10/19 09:19:43;;;;;;;24.10;22.80;;;;;;;10.01;100.00;100023.81;5033659;28;20432;-40
2023/10/19 09:22:18;;;;;;;24.37;22.80;;;;;;;10.04;100.00;100033.22;5032663;28;20490;-40
2023/10/19 09:24:46;;;;;;;24.93;23.47;;;;;;;10.03;100.00;100037.72;5033214;28;20482;-39
2023/10/19 09:27:14;;;;;;;24.47;22.97;;;;;;;10.02;100.00;100030.78;5033496;28;20823;-42
2023/10/19 09:29:42;;;;;;;25.50;23.70;;;;;;;10.05;100.00;100042.03;5033966;28;20783;-42
2023/10/19 09:32:13;;;;;;;24.80;23.30;;;;;;;10.09;100.00;100036.09;5032249;28;20515;-41
2023/10/19 09:34:43;;;;;;;26.67;24.57;;;;;;;10.06;100.00;100049.84;5032809;28;20428;-43
2023/10/19 09:37:12;;;;;;;25.30;23.80;;;;;;;10.13;100.00;100052.44;5032814;28;20462;-44
2023/10/19 09:39:43;;;;;;;23.70;22.40;;;;;;;10.15;100.00;100064.59;5033619;28;20425;-47
2023/10/19 09:42:16;;;;;;;26.03;24.10;;;;;;;10.15;100.00;100066.44;5032612;28;21044;-40
2023/10/19 09:44:45;;;;;;;26.80;25.20;;;;;;;10.08;100.00;100082.41;5032760;28;20476;-39
2023/10/19 09:47:19;;;;;;;27.90;26.47;;;;;;;10.12;100.00;100078.31;5032660;28;20552;-40
2023/10/19 09:49:49;;;;;;;27.70;25.80;;;;;;;10.14;100.00;100083.44;5033433;28;20451;-45
2023/10/19 09:52:19;;;;;;;26.60;24.90;;;;;;;10.17;100.00;100091.00;5032219;28;20451;-42
2023/10/19 09:54:53;;;;;;;26.97;24.97;;;;;;;10.20;100.00;100112.72;5032682;28;20439;-42
2023/10/19 09:57:28;;;;;;;28.47;26.83;;;;;;;10.24;100.00;100100.63;5032220;28;20533;-42
2023/10/19 10:00:07;;;;;;;27.83;26.23;;;;;;;10.29;100.00;100095.50;5032739;28;20439;-42
2023/10/19 10:02:36;;;;;;;26.90;25.10;;;;;;;10.31;100.00;100080.09;5032279;28;20466;-43
2023/10/19 10:05:05;;;;;;;26.87;25.17;;;;;;;10.34;100.00;100092.19;5032240;28;20899;-39
2023/10/19 10:07:33;;;;;;;27.93;26.00;;;;;;;10.40;100.00;100088.66;5032550;28;20902;-40
2023/10/19 10:10:09;;;;;;;26.07;23.97;;;;;;;10.38;100.00;100090.75;5032432;28;20939;-45
2023/10/19 10:12:37;;;;;;;26.23;24.67;;;;;;;10.36;100.00;100084.81;5031711;28;21030;-40
2023/10/19 10:15:07;;;;;;;27.53;25.93;;;;;;;10.37;100.00;100081.09;5032160;28;20519;-39
2023/10/19 10:17:38;;;;;;;31.53;29.00;;;;;;;10.35;100.00;100070.66;5032342;28;20967;-40
2023/10/19 10:20:32;;;;;;;32.07;29.83;;;;;;;10.36;100.00;100090.94;5032073;28;20515;-46
2023/10/19 10:23:21;;;;;;;30.20;28.30;;;;;;;10.32;100.00;100081.75;5031762;28;20460;-43
2023/10/19 10:25:50;;;;;;;33.33;31.27;;;;;;;10.35;100.00;100075.16;5031885;28;20468;-42
2023/10/19 10:28:19;;;;;;;32.90;30.60;;;;;;;10.37;100.00;100075.75;5032259;28;20523;-44
2023/10/19 10:31:20;;;;;;;32.27;30.10;;;;;;;10.40;100.00;100067.34;5032119;28;20440;-42
2023/10/19 10:33:54;;;;;;;31.23;29.20;;;;;;;10.37;100.00;100075.75;4970408;28;20473;-42
2023/10/19 10:36:22;;;;;;;31.33;29.63;;;;;;;10.33;100.00;100064.72;5021312;28;20483;-44
2023/10/19 10:38:51;;;;;;;36.17;33.97;;;;;;;10.26;100.00;100071.91;5032143;28;20491;-41
2023/10/19 10:41:26;;;;;;;34.17;31.63;;;;;;;10.26;100.00;100071.91;5031902;28;20464;-43
2023/10/19 10:43:55;;;;;;;31.53;29.10;;;;;;;10.18;100.00;100064.16;5031344;28;20495;-41
2023/10/19 10:46:25;;;;;;;31.97;29.83;;;;;;;10.19;100.00;100060.47;5031767;28;20432;-42
2023/10/19 10:48:54;;;;;;;32.40;30.03;;;;;;;10.18;100.00;100052.69;5031541;28;20471;-40
2023/10/19 10:51:23;;;;;;;38.60;36.50;;;;;;;10.13;100.00;100025.81;5031379;28;20442;-45
2023/10/19 10:53:52;;;;;;;36.00;33.90;;;;;;;10.17;100.00;100037.72;5031139;28;20453;-42
2023/10/19 10:56:21;;;;;;;42.23;39.80;;;;;;;10.10;100.00;100044.88;5031247;28;20452;-40
2023/10/19 10:58:50;;;;;;;42.10;39.73;;;;;;;10.14;100.00;100028.31;5031869;28;20451;-40
2023/10/19 11:01:29;;;;;;;58.17;55.13;;;;;;;10.11;100.00;100010.06;5031579;28;20789;-41
2023/10/19 11:04:08;;;;;;;58.80;55.30;;;;;;;10.12;100.00;100006.38;5031217;28;20499;-40
2023/10/19 11:06:48;;;;;;;55.10;51.90;;;;;;;10.12;100.00;100011.69;5031430;28;20483;-42
2023/10/19 11:09:18;;;;;;;52.63;49.30;;;;;;;10.19;100.00;100006.34;5030963;28;20464;-43
2023/10/19 11:11:46;;;;;;;47.40;44.70;;;;;;;10.14;100.00;100007.00;5032000;28;20432;-41
2023/10/19 11:14:14;;;;;;;44.30;41.80;;;;;;;10.18;100.00;100007.41;5031141;28;20483;-44
2023/10/19 11:16:43;;;;;;;43.80;41.37;;;;;;;10.30;100.00;99995.03;5031022;28;20432;-44
2023/10/19 11:19:12;;;;;;;43.37;40.73;;;;;;;10.41;100.00;99997.03;5031144;28;20436;-41
2023/10/19 11:21:53;;;;;;;39.77;37.40;;;;;;;10.43;100.00;99982.44;5031356;28;20523;-42
2023/10/19 11:24:26;;;;;;;37.00;34.63;;;;;;;10.38;100.00;99968.13;5030829;28;20559;-40
2023/10/19 11:26:55;;;;;;;48.60;45.73;;;;;;;10.42;100.00;99967.47;5031284;28;20433;-42